Time;durP1;ratioP1;P1;durP2;ratioP2;P2;SDS_P1;SDS_P2;PMS_P1;PMS_P2;Temp;Humidity;BMP_temperature;BMP_pressure;BME280_temperature;BME280_humidity;BME280_pressure;Samples;Min_cycle;Max_cycle;Signal;HPM_P1;HPM_P2
2020/12/18 00:01:26;;;;;;;1.27;1.17;;;9.40;99.90;;;;;;5074977;28;20173;-75
2020/12/18 00:03:52;;;;;;;0.88;0.35;;;9.40;99.90;;;;;;5075171;28;20194;-75
2020/12/18 00:06:19;;;;;;;0.75;0.75;;;9.30;99.90;;;;;;5075043;28;20201;-75
2020/12/18 00:08:44;;;;;;;0.50;0.50;;;9.20;99.90;;;;;;5074745;28;20169;-75
2020/12/18 00:11:10;;;;;;;0.52;0.52;;;9.40;99.90;;;;;;5056709;28;20253;-75
2020/12/18 00:13:36;;;;;;;0.35;0.35;;;9.60;99.90;;;;;;5074900;28;20618;-75
2020/12/18 00:16:02;;;;;;;0.98;0.98;;;9.50;99.90;;;;;;5074979;28;20163;-75
2020/12/18 00:18:28;;;;;;;0.95;0.95;;;9.50;99.90;;;;;;5074644;28;20151;-75
2020/12/18 00:20:54;;;;;;;0.38;0.38;;;9.50;99.90;;;;;;5074543;28;20179;-75
2020/12/18 00:23:19;;;;;;;0.45;0.45;;;9.50;99.90;;;;;;5056796;28;20166;-75
2020/12/18 00:25:47;;;;;;;1.30;0.50;;;9.30;99.90;;;;;;5075875;28;20198;-75
2020/12/18 00:28:13;;;;;;;4.03;1.45;;;9.30;99.90;;;;;;5075210;28;20633;-75
2020/12/18 00:30:40;;;;;;;3.50;1.52;;;9.40;99.90;;;;;;5075324;28;20178;-75
2020/12/18 00:33:05;;;;;;;0.68;0.68;;;9.30;99.90;;;;;;5075334;28;20159;-76
2020/12/18 00:35:31;;;;;;;0.52;0.52;;;9.20;99.90;;;;;;5075107;28;20179;-75
2020/12/18 00:37:57;;;;;;;1.45;1.08;;;9.20;99.90;;;;;;5075521;28;20170;-75
2020/12/18 00:40:22;;;;;;;0.52;0.52;;;9.30;99.90;;;;;;5075535;28;20304;-75
2020/12/18 00:42:48;;;;;;;0.55;0.55;;;9.30;99.90;;;;;;5074364;28;20166;-75
2020/12/18 00:45:13;;;;;;;0.45;0.45;;;9.30;99.90;;;;;;5074203;28;20289;-75
2020/12/18 00:47:39;;;;;;;0.68;0.68;;;9.40;99.90;;;;;;5073808;28;20551;-75
2020/12/18 00:50:05;;;;;;;15.07;1.48;;;9.30;99.90;;;;;;5074264;28;20191;-75
2020/12/18 00:52:30;;;;;;;18.85;1.58;;;9.20;99.90;;;;;;5056323;28;20173;-75
2020/12/18 00:54:56;;;;;;;0.80;0.80;;;9.10;99.90;;;;;;5073635;28;20222;-76
2020/12/18 00:57:22;;;;;;;1.05;1.05;;;9.10;99.90;;;;;;5074108;28;20626;-75
2020/12/18 00:59:47;;;;;;;0.40;0.40;;;9.20;99.90;;;;;;5074198;28;20162;-75
2020/12/18 01:02:13;;;;;;;0.30;0.30;;;9.20;99.90;;;;;;5073913;28;20158;-75
2020/12/18 01:04:39;;;;;;;1.60;0.90;;;9.20;99.90;;;;;;5073600;28;20190;-75
2020/12/18 01:07:05;;;;;;;0.60;0.60;;;9.30;99.90;;;;;;5073784;28;20209;-75
2020/12/18 01:09:31;;;;;;;1.35;1.25;;;9.30;99.90;;;;;;5072980;28;20155;-75
2020/12/18 01:11:57;;;;;;;1.02;1.02;;;9.30;99.90;;;;;;5055749;28;20163;-76
2020/12/18 01:14:22;;;;;;;1.00;0.93;;;9.30;99.90;;;;;;5073349;28;20264;-75
2020/12/18 01:16:55;;;;;;;1.73;0.75;;;9.20;99.90;;;;;;5073602;28;20258;-75
2020/12/18 01:19:22;;;;;;;0.20;0.20;;;9.10;99.90;;;;;;5073695;28;20155;-75
2020/12/18 01:21:48;;;;;;;0.47;0.47;;;9.20;99.90;;;;;;5073595;28;20170;-75
2020/12/18 01:24:14;;;;;;;0.40;0.40;;;9.20;99.90;;;;;;5073151;28;20303;-75
2020/12/18 01:26:40;;;;;;;1.52;0.95;;;9.30;99.90;;;;;;5073512;28;20210;-75
2020/12/18 01:29:05;;;;;;;0.50;0.50;;;9.20;99.90;;;;;;5073557;28;20177;-75
2020/12/18 01:31:31;;;;;;;0.47;0.47;;;9.30;99.90;;;;;;5073266;28;20163;-76
2020/12/18 01:33:57;;;;;;;0.25;0.25;;;9.20;99.90;;;;;;5073164;28;20189;-75
2020/12/18 01:36:22;;;;;;;3.88;0.65;;;9.10;99.90;;;;;;5073393;28;20163;-76
2020/12/18 01:38:48;;;;;;;5.70;0.30;;;9.10;99.90;;;;;;5073438;28;20162;-75
2020/12/18 01:41:14;;;;;;;4.05;1.30;;;9.20;99.90;;;;;;5073034;28;20652;-75
2020/12/18 01:43:39;;;;;;;0.63;0.63;;;9.20;99.90;;;;;;5073257;28;20220;-76
2020/12/18 01:46:13;;;;;;;9.52;0.75;;;9.10;99.90;;;;;;5073230;28;20222;-75
2020/12/18 01:48:40;;;;;;;0.20;0.20;;;9.10;99.90;;;;;;5073031;28;20169;-75
2020/12/18 01:51:08;;;;;;;0.45;0.45;;;9.20;99.90;;;;;;5054989;28;20185;-75
2020/12/18 01:53:34;;;;;;;0.20;0.20;;;9.20;99.90;;;;;;5073240;28;20167;-75
2020/12/18 01:56:00;;;;;;;0.40;0.40;;;9.30;99.90;;;;;;5073040;28;20248;-75
2020/12/18 01:58:28;;;;;;;1.13;0.45;;;9.20;99.90;;;;;;5073011;28;20242;-75
2020/12/18 02:00:55;;;;;;;0.98;0.80;;;9.30;99.90;;;;;;5072922;28;20166;-76
2020/12/18 02:03:20;;;;;;;0.40;0.40;;;9.20;99.90;;;;;;5073093;28;20622;-75
2020/12/18 02:05:46;;;;;;;1.13;1.02;;;9.30;99.90;;;;;;5072906;28;20221;-76
2020/12/18 02:08:12;;;;;;;0.52;0.40;;;9.30;99.90;;;;;;5072839;28;20166;-75
2020/12/18 02:10:37;;;;;;;0.38;0.38;;;9.30;99.90;;;;;;5072936;28;20245;-75
2020/12/18 02:13:03;;;;;;;6.88;1.58;;;9.30;99.90;;;;;;5054783;28;20166;-75
2020/12/18 02:15:30;;;;;;;0.22;0.22;;;9.20;99.90;;;;;;5054891;28;20214;-75
2020/12/18 02:17:56;;;;;;;0.20;0.20;;;9.30;99.90;;;;;;5038139;28;20265;-75
2020/12/18 02:20:25;;;;;;;0.82;0.77;;;9.30;99.90;;;;;;5074423;28;20215;-76
2020/12/18 02:22:51;;;;;;;2.03;0.77;;;9.30;99.90;;;;;;5077309;28;20175;-76
2020/12/18 02:25:22;;;;;;;10.23;0.52;;;9.10;99.90;;;;;;5076823;28;20209;-76
2020/12/18 02:27:47;;;;;;;11.50;1.10;;;9.20;99.90;;;;;;5077379;28;20356;-75
2020/12/18 02:30:13;;;;;;;0.25;0.25;;;9.20;99.90;;;;;;5058997;28;20253;-75
2020/12/18 02:32:39;;;;;;;1.77;1.65;;;9.30;99.90;;;;;;5076595;28;20522;-75
2020/12/18 02:35:06;;;;;;;0.30;0.30;;;9.20;99.90;;;;;;5076550;28;20189;-75
2020/12/18 02:37:32;;;;;;;0.75;0.60;;;9.20;99.90;;;;;;5076811;28;20165;-75
2020/12/18 02:39:58;;;;;;;0.63;0.63;;;9.20;99.90;;;;;;5076728;28;20175;-75
2020/12/18 02:42:24;;;;;;;0.47;0.47;;;9.20;99.90;;;;;;5076792;28;20509;-75
2020/12/18 02:44:49;;;;;;;0.17;0.17;;;9.20;99.90;;;;;;5076387;28;20193;-76
2020/12/18 02:47:15;;;;;;;0.20;0.20;;;9.20;99.90;;;;;;5076458;28;20286;-75
2020/12/18 02:49:40;;;;;;;0.85;0.85;;;9.20;99.90;;;;;;5076616;28;20159;-76
2020/12/18 02:52:06;;;;;;;0.32;0.32;;;9.20;99.90;;;;;;5076710;28;20201;-75
2020/12/18 02:54:31;;;;;;;0.10;0.10;;;9.20;99.90;;;;;;5075927;28;20210;-75
2020/12/18 02:56:57;;;;;;;0.10;0.10;;;9.20;99.90;;;;;;5076389;28;20193;-75
2020/12/18 02:59:23;;;;;;;0.10;0.10;;;9.10;99.90;;;;;;5058141;28;20182;-75
2020/12/18 03:01:48;;;;;;;0.10;0.10;;;9.20;99.90;;;;;;5076199;28;20183;-76
2020/12/18 03:04:14;;;;;;;1.17;1.08;;;9.20;99.90;;;;;;5076343;28;20574;-75
2020/12/18 03:06:39;;;;;;;1.60;0.52;;;9.20;99.90;;;;;;5075854;28;20252;-76
2020/12/18 03:09:05;;;;;;;0.68;0.68;;;9.20;99.90;;;;;;5076225;28;20155;-76
2020/12/18 03:11:30;;;;;;;1.75;1.65;;;9.10;99.90;;;;;;5075893;28;20219;-76
2020/12/18 03:13:56;;;;;;;0.38;0.35;;;9.30;99.90;;;;;;5076059;28;20214;-75
2020/12/18 03:16:22;;;;;;;0.40;0.40;;;9.20;99.90;;;;;;5075998;28;20174;-75
2020/12/18 03:18:47;;;;;;;19.38;1.30;;;9.30;99.90;;;;;;5075971;28;20159;-75
2020/12/18 03:21:13;;;;;;;0.30;0.30;;;9.40;99.90;;;;;;5075697;28;20171;-75
2020/12/18 03:23:39;;;;;;;0.65;0.65;;;9.40;99.90;;;;;;5075793;28;20281;-75
2020/12/18 03:26:04;;;;;;;11.93;1.38;;;9.40;99.90;;;;;;5075642;28;20234;-75
2020/12/18 03:28:30;;;;;;;1.17;1.08;;;9.40;99.90;;;;;;5075696;28;20155;-75
2020/12/18 03:30:56;;;;;;;0.20;0.20;;;9.30;99.90;;;;;;5057799;28;20178;-75
2020/12/18 03:33:22;;;;;;;4.18;1.30;;;9.50;99.90;;;;;;5074986;28;20204;-75
2020/12/18 03:35:48;;;;;;;0.20;0.20;;;9.30;99.90;;;;;;5075394;28;20183;-75
2020/12/18 03:38:14;;;;;;;0.30;0.30;;;9.20;99.90;;;;;;5057461;28;20170;-75
2020/12/18 03:40:40;;;;;;;0.20;0.20;;;9.20;99.90;;;;;;5057733;28;20176;-75
2020/12/18 03:43:05;;;;;;;1.58;0.57;;;9.30;99.90;;;;;;5075729;28;20169;-75
2020/12/18 03:45:31;;;;;;;0.50;0.50;;;9.20;99.90;;;;;;5075279;28;20202;-75
2020/12/18 03:47:57;;;;;;;24.83;0.63;;;9.20;99.90;;;;;;5075240;28;20167;-75
2020/12/18 03:50:22;;;;;;;0.35;0.35;;;9.00;99.90;;;;;;5075434;28;20245;-75
2020/12/18 03:52:48;;;;;;;0.55;0.55;;;9.00;99.90;;;;;;5075407;28;20167;-75
2020/12/18 03:55:13;;;;;;;0.15;0.15;;;9.00;99.90;;;;;;5057104;28;20226;-75
2020/12/18 03:57:39;;;;;;;0.38;0.38;;;9.10;99.90;;;;;;5074792;28;20171;-75
2020/12/18 04:00:09;;;;;;;0.65;0.55;;;9.20;99.90;;;;;;5057301;28;20645;-75
2020/12/18 04:02:34;;;;;;;0.65;0.65;;;9.20;99.90;;;;;;5075099;28;20158;-75
2020/12/18 04:05:00;;;;;;;1.00;1.00;;;9.20;99.90;;;;;;5075118;28;20192;-75
2020/12/18 04:07:26;;;;;;;0.45;0.45;;;9.30;99.90;;;;;;5075239;28;20506;-75
2020/12/18 04:09:51;;;;;;;0.20;0.20;;;9.20;99.90;;;;;;5075074;28;20174;-75
2020/12/18 04:12:17;;;;;;;0.60;0.60;;;9.10;99.90;;;;;;5056913;28;20170;-75
2020/12/18 04:14:43;;;;;;;0.30;0.30;;;9.10;99.90;;;;;;5074590;28;20228;-75
2020/12/18 04:17:08;;;;;;;0.90;0.90;;;9.10;99.90;;;;;;5074944;28;20171;-75
2020/12/18 04:19:34;;;;;;;0.47;0.43;;;9.20;99.90;;;;;;5074827;28;20220;-75
2020/12/18 04:22:00;;;;;;;0.20;0.20;;;9.10;99.90;;;;;;5074852;28;20162;-75
2020/12/18 04:24:25;;;;;;;0.80;0.63;;;9.10;99.90;;;;;;5074408;28;20186;-74
2020/12/18 04:26:51;;;;;;;0.85;0.85;;;9.00;99.90;;;;;;5074831;28;20263;-75
2020/12/18 04:29:18;;;;;;;0.57;0.57;;;8.90;99.90;;;;;;5074645;28;20205;-75
2020/12/18 04:31:45;;;;;;;0.30;0.30;;;9.00;99.90;;;;;;5074656;28;20159;-75
2020/12/18 04:34:11;;;;;;;3.78;1.05;;;9.20;99.90;;;;;;5074522;28;20182;-75
2020/12/18 04:36:36;;;;;;;0.28;0.28;;;9.10;99.90;;;;;;5074270;28;20182;-75
2020/12/18 04:39:04;;;;;;;0.20;0.20;;;9.00;99.90;;;;;;5074688;28;20159;-75
2020/12/18 04:41:31;;;;;;;6.63;1.17;;;9.00;99.90;;;;;;5074199;28;20158;-75
2020/12/18 04:43:57;;;;;;;0.20;0.20;;;9.10;99.90;;;;;;5056183;28;20215;-76
2020/12/18 04:46:24;;;;;;;0.40;0.40;;;9.20;99.90;;;;;;5074148;28;20309;-75
2020/12/18 04:48:50;;;;;;;0.22;0.22;;;9.20;99.90;;;;;;5074125;28;20165;-75
2020/12/18 04:51:22;;;;;;;0.38;0.38;;;9.20;99.90;;;;;;5055858;28;20167;-75
2020/12/18 04:53:50;;;;;;;0.32;0.32;;;9.20;99.90;;;;;;5073916;28;20179;-75
2020/12/18 04:56:23;;;;;;;0.30;0.22;;;9.20;99.90;;;;;;5073882;28;20186;-75
2020/12/18 04:58:51;;;;;;;0.52;0.40;;;9.30;99.90;;;;;;5055945;28;20163;-75
2020/12/18 05:01:19;;;;;;;0.98;0.43;;;9.40;99.90;;;;;;5073697;28;20198;-75
2020/12/18 05:03:45;;;;;;;6.75;1.23;;;9.60;99.90;;;;;;5073949;28;20163;-75
2020/12/18 05:06:11;;;;;;;4.40;0.95;;;9.50;99.90;;;;;;5055644;28;20550;-75
2020/12/18 05:08:37;;;;;;;0.63;0.43;;;9.40;99.90;;;;;;5073609;28;20155;-75
2020/12/18 05:11:25;;;;;;;0.95;0.95;;;9.40;99.90;;;;;;5073792;28;20171;-75
2020/12/18 05:13:55;;;;;;;12.75;0.60;;;9.60;99.90;;;;;;5055773;28;20197;-75
2020/12/18 05:16:23;;;;;;;0.35;0.35;;;9.70;99.90;;;;;;5073550;28;20213;-75
2020/12/18 05:18:50;;;;;;;9.68;1.17;;;9.70;99.90;;;;;;5073488;28;20163;-75
2020/12/18 05:21:17;;;;;;;0.28;0.28;;;9.50;99.90;;;;;;5073695;28;20252;-75
2020/12/18 05:23:44;;;;;;;4.40;2.45;;;9.60;99.90;;;;;;5073271;28;20177;-75
2020/12/18 05:26:11;;;;;;;0.80;0.80;;;9.80;99.90;;;;;;5072949;28;20214;-75
2020/12/18 05:28:42;;;;;;;0.95;0.95;;;9.60;99.90;;;;;;5073799;28;20162;-75
2020/12/18 05:31:13;;;;;;;0.30;0.30;;;9.70;99.90;;;;;;5073414;28;20162;-75
2020/12/18 05:33:39;;;;;;;36.63;2.40;;;9.60;99.90;;;;;;5055348;28;20174;-76
2020/12/18 05:36:05;;;;;;;0.60;0.60;;;9.70;99.90;;;;;;5073144;28;20155;-76
2020/12/18 05:38:34;;;;;;;0.40;0.40;;;9.70;99.90;;;;;;5073497;28;20166;-75
2020/12/18 05:41:00;;;;;;;0.60;0.60;;;9.60;99.90;;;;;;5055343;28;20171;-75
2020/12/18 05:43:34;;;;;;;0.82;0.82;;;9.70;99.90;;;;;;5072926;28;20317;-75
2020/12/18 05:46:16;;;;;;;4.85;1.98;;;9.70;99.90;;;;;;5054690;28;20208;-75
2020/12/18 05:48:54;;;;;;;28.38;1.15;;;9.70;99.90;;;;;;5073506;28;20162;-75
2020/12/18 05:51:40;;;;;;;0.57;0.57;;;9.70;99.90;;;;;;5073018;28;20253;-75
2020/12/18 05:54:13;;;;;;;0.38;0.38;;;9.80;99.90;;;;;;5072560;28;20212;-75
2020/12/18 05:56:40;;;;;;;0.60;0.60;;;9.80;99.90;;;;;;5072514;28;20630;-75
2020/12/18 05:59:12;;;;;;;0.20;0.20;;;9.80;99.90;;;;;;5073198;28;20146;-76
2020/12/18 06:01:43;;;;;;;0.38;0.38;;;9.70;99.90;;;;;;5072992;28;20569;-75
2020/12/18 06:04:11;;;;;;;0.75;0.75;;;9.70;99.90;;;;;;5072308;28;20718;-75
2020/12/18 06:06:44;;;;;;;1.88;1.70;;;9.80;99.90;;;;;;5072888;28;20245;-75
2020/12/18 06:09:10;;;;;;;0.50;0.50;;;9.90;99.90;;;;;;5054791;28;20503;-74
2020/12/18 06:11:36;;;;;;;0.20;0.20;;;10.00;99.90;;;;;;5072500;28;20169;-75
2020/12/18 06:14:03;;;;;;;2.50;0.93;;;10.10;99.90;;;;;;5072710;28;20186;-75
2020/12/18 06:16:30;;;;;;;1.30;1.25;;;10.10;99.90;;;;;;5072805;28;20166;-75
2020/12/18 06:19:03;;;;;;;5.03;0.90;;;10.00;99.90;;;;;;5072597;28;20247;-75
2020/12/18 06:21:29;;;;;;;0.52;0.52;;;10.00;99.90;;;;;;5072312;28;20174;-75
2020/12/18 06:23:54;;;;;;;0.63;0.63;;;10.10;99.90;;;;;;5054470;28;20189;-75
2020/12/18 06:26:21;;;;;;;0.63;0.43;;;10.30;99.90;;;;;;5072592;28;20546;-75
2020/12/18 06:28:47;;;;;;;0.50;0.50;;;10.10;99.90;;;;;;5072623;28;20151;-75
2020/12/18 06:31:23;;;;;;;5.03;2.28;;;10.10;99.90;;;;;;5072369;28;20249;-75
2020/12/18 06:33:50;;;;;;;0.47;0.47;;;10.10;99.90;;;;;;5072305;28;20190;-75
2020/12/18 06:36:16;;;;;;;1.67;0.93;;;10.10;99.90;;;;;;5072290;28;20166;-75
2020/12/18 06:38:41;;;;;;;0.70;0.40;;;10.00;99.90;;;;;;5054093;28;20163;-75
2020/12/18 06:41:24;;;;;;;1.30;1.23;;;10.00;99.90;;;;;;5072435;28;20630;-80
2020/12/18 06:43:49;;;;;;;0.73;0.73;;;9.90;99.90;;;;;;5072073;28;20281;-79
2020/12/18 06:46:19;;;;;;;2.65;0.98;;;9.90;99.90;;;;;;5071721;28;20304;-75
2020/12/18 06:48:54;;;;;;;0.90;0.90;;;9.90;99.90;;;;;;5053669;28;20545;-75
2020/12/18 06:51:30;;;;;;;1.02;0.93;;;10.00;99.90;;;;;;5072248;28;20162;-75
2020/12/18 06:54:09;;;;;;;1.00;0.73;;;10.10;99.90;;;;;;5050787;28;20669;-76
2020/12/18 06:56:35;;;;;;;3.45;1.27;;;10.20;99.90;;;;;;5068922;28;20175;-76
2020/12/18 06:59:24;;;;;;;0.20;0.20;;;10.20;99.90;;;;;;5072343;28;20213;-76
2020/12/18 07:01:49;;;;;;;0.63;0.60;;;10.30;99.90;;;;;;5054118;28;20248;-77
2020/12/18 07:04:21;;;;;;;0.60;0.60;;;10.40;99.90;;;;;;5072198;28;20210;-75
2020/12/18 07:06:48;;;;;;;0.75;0.65;;;10.30;99.90;;;;;;5072278;28;20256;-77
2020/12/18 07:09:16;;;;;;;0.57;0.57;;;10.30;99.90;;;;;;5075834;28;20151;-75
2020/12/18 07:11:41;;;;;;;0.68;0.68;;;10.20;99.90;;;;;;5076115;28;20545;-76
2020/12/18 07:14:17;;;;;;;1.52;1.42;;;10.30;99.90;;;;;;5075784;28;20179;-76
2020/12/18 07:17:09;;;;;;;5.53;1.42;;;10.30;99.90;;;;;;5075425;28;20166;-76
2020/12/18 07:19:41;;;;;;;0.45;0.45;;;10.20;99.90;;;;;;5072000;28;20722;-76
2020/12/18 07:22:06;;;;;;;0.43;0.43;;;10.30;99.90;;;;;;5075434;28;20150;-76
2020/12/18 07:24:32;;;;;;;0.50;0.50;;;10.40;99.90;;;;;;5075302;28;20182;-76
2020/12/18 07:26:57;;;;;;;0.52;0.52;;;10.30;99.90;;;;;;5057772;28;20210;-76
2020/12/18 07:29:23;;;;;;;0.30;0.30;;;10.30;99.90;;;;;;5057336;28;20517;-79
2020/12/18 07:31:48;;;;;;;0.50;0.50;;;10.40;99.90;;;;;;5057377;28;20213;-81
2020/12/18 07:34:14;;;;;;;0.10;0.10;;;10.30;99.90;;;;;;5075292;28;20190;-80
2020/12/18 07:36:40;;;;;;;1.42;0.65;;;10.30;99.90;;;;;;5075471;28;20181;-76
2020/12/18 07:39:10;;;;;;;18.30;2.22;;;10.40;99.90;;;;;;5075080;28;20162;-75
2020/12/18 07:41:35;;;;;;;0.10;0.10;;;10.30;99.90;;;;;;5074416;28;20174;-76
2020/12/18 07:44:05;;;;;;;0.50;0.50;;;10.50;99.90;;;;;;5075508;28;20205;-79
2020/12/18 07:46:33;;;;;;;0.77;0.77;;;10.40;99.90;;;;;;5057468;28;20544;-79
2020/12/18 07:49:07;;;;;;;0.30;0.30;;;10.40;99.90;;;;;;5075233;28;20162;-74
2020/12/18 07:51:33;;;;;;;0.90;0.85;;;10.40;99.90;;;;;;5075021;28;20696;-77
2020/12/18 07:53:58;;;;;;;2.50;0.55;;;10.50;99.90;;;;;;5074887;28;20222;-78
2020/12/18 07:56:24;;;;;;;0.20;0.20;;;10.60;99.90;;;;;;5074777;28;20167;-77
2020/12/18 07:59:05;;;;;;;3.33;2.35;;;10.40;99.90;;;;;;5075645;28;20159;-75
2020/12/18 08:01:32;;;;;;;0.60;0.60;;;10.40;99.90;;;;;;5074930;28;20166;-75
2020/12/18 08:04:13;;;;;;;0.85;0.85;;;10.40;99.90;;;;;;5074854;28;20186;-75
2020/12/18 08:06:41;;;;;;;0.30;0.30;;;10.40;99.90;;;;;;5074968;28;20296;-75
2020/12/18 08:09:09;;;;;;;7.25;2.58;;;10.40;99.90;;;;;;5075257;28;20269;-75
2020/12/18 08:11:44;;;;;;;0.40;0.40;;;10.40;99.90;;;;;;5074643;28;20751;-74
2020/12/18 08:14:11;;;;;;;2.30;0.85;;;10.40;99.90;;;;;;5074610;28;20204;-75
2020/12/18 08:16:37;;;;;;;0.68;0.30;;;10.40;99.90;;;;;;5056639;28;20174;-74
2020/12/18 08:19:08;;;;;;;1.67;1.58;;;10.30;99.90;;;;;;5055933;28;20500;-74
2020/12/18 08:21:41;;;;;;;1.25;0.38;;;10.30;99.90;;;;;;5074505;28;20194;-74
2020/12/18 08:24:14;;;;;;;0.20;0.20;;;10.30;99.90;;;;;;5074685;28;20214;-74
2020/12/18 08:26:58;;;;;;;5.13;1.38;;;10.30;99.90;;;;;;5074449;28;20260;-74
2020/12/18 08:29:24;;;;;;;4.68;2.00;;;10.30;99.90;;;;;;5074590;28;20159;-74
2020/12/18 08:31:56;;;;;;;1.95;1.05;;;10.20;99.90;;;;;;5074430;28;20159;-74
2020/12/18 08:34:27;;;;;;;0.30;0.30;;;10.30;99.90;;;;;;5056375;28;20543;-74
2020/12/18 08:36:53;;;;;;;0.55;0.55;;;10.30;99.90;;;;;;5074156;28;20167;-74
2020/12/18 08:39:18;;;;;;;0.55;0.55;;;10.30;99.90;;;;;;5074181;28;20162;-74
2020/12/18 08:41:51;;;;;;;0.73;0.57;;;10.30;99.90;;;;;;5056334;28;20180;-74
2020/12/18 08:44:18;;;;;;;0.43;0.43;;;10.40;99.90;;;;;;5074012;28;20214;-75
2020/12/18 08:46:44;;;;;;;9.40;2.08;;;10.40;99.90;;;;;;5073881;28;20289;-75
2020/12/18 08:49:24;;;;;;;2.50;1.23;;;10.40;99.90;;;;;;5073836;28;20586;-74
2020/12/18 08:51:52;;;;;;;0.75;0.75;;;10.30;99.90;;;;;;5074151;28;20305;-74
2020/12/18 08:54:32;;;;;;;0.30;0.30;;;10.30;99.90;;;;;;5055759;28;20217;-75
2020/12/18 08:57:15;;;;;;;0.40;0.40;;;10.30;99.90;;;;;;5073861;28;20254;-75
2020/12/18 08:59:55;;;;;;;0.20;0.20;;;10.30;99.90;;;;;;5073471;28;20162;-75
2020/12/18 09:02:21;;;;;;;1.17;0.75;;;10.40;99.90;;;;;;5073621;28;20159;-75
2020/12/18 09:04:47;;;;;;;0.30;0.30;;;10.50;99.90;;;;;;5073660;28;20197;-75
2020/12/18 09:07:12;;;;;;;0.60;0.60;;;10.50;99.90;;;;;;5073638;28;20285;-77
2020/12/18 09:09:53;;;;;;;1.08;0.47;;;10.50;99.90;;;;;;5073310;28;20163;-80
2020/12/18 09:12:19;;;;;;;4.20;0.60;;;10.60;99.90;;;;;;5073595;28;20229;-80
2020/12/18 09:14:45;;;;;;;0.55;0.55;;;10.60;99.90;;;;;;5073383;28;20261;-75
2020/12/18 09:17:10;;;;;;;0.88;0.88;;;10.50;99.90;;;;;;5073426;28;20162;-75
2020/12/18 09:19:48;;;;;;;0.10;0.10;;;10.40;99.90;;;;;;5073329;28;20178;-76
2020/12/18 09:22:14;;;;;;;1.45;0.85;;;10.50;99.90;;;;;;5073360;28;20151;-75
2020/12/18 09:24:39;;;;;;;0.55;0.55;;;10.50;99.90;;;;;;5055317;28;20197;-75
2020/12/18 09:27:09;;;;;;;2.33;1.50;;;10.60;99.90;;;;;;5073445;28;20685;-75
2020/12/18 09:29:36;;;;;;;0.80;0.47;;;10.60;99.90;;;;;;5072355;28;20186;-75
2020/12/18 09:32:02;;;;;;;0.30;0.30;;;10.70;99.90;;;;;;5073252;28;20186;-75
2020/12/18 09:34:28;;;;;;;0.28;0.28;;;10.80;99.90;;;;;;5073110;28;20237;-75
2020/12/18 09:36:54;;;;;;;1.35;1.25;;;10.70;99.90;;;;;;5072841;28;20211;-76
2020/12/18 09:39:19;;;;;;;0.25;0.25;;;10.60;99.90;;;;;;5072966;28;20555;-76
2020/12/18 09:41:45;;;;;;;1.38;0.38;;;10.50;99.90;;;;;;5073007;28;20683;-75
2020/12/18 09:44:11;;;;;;;0.35;0.35;;;10.60;99.90;;;;;;5055033;28;20217;-75
2020/12/18 09:46:36;;;;;;;0.30;0.30;;;10.70;99.90;;;;;;5072734;28;20285;-76
2020/12/18 09:49:02;;;;;;;0.28;0.28;;;10.70;99.90;;;;;;5054813;28;20633;-76
2020/12/18 09:51:27;;;;;;;0.80;0.47;;;10.70;99.90;;;;;;5072996;28;20618;-76
2020/12/18 09:53:57;;;;;;;0.15;0.15;;;10.70;99.90;;;;;;5072744;28;20197;-76
2020/12/18 09:56:22;;;;;;;0.10;0.10;;;10.80;99.90;;;;;;5072763;28;20178;-75
2020/12/18 09:58:48;;;;;;;0.20;0.20;;;10.80;99.90;;;;;;5072648;28;20170;-76
2020/12/18 10:01:20;;;;;;;0.25;0.25;;;10.80;99.90;;;;;;5072618;28;20170;-75
2020/12/18 10:03:45;;;;;;;0.20;0.20;;;10.80;99.90;;;;;;5072664;28;20198;-76
2020/12/18 10:06:11;;;;;;;0.30;0.30;;;10.70;99.90;;;;;;5072686;28;20554;-76
2020/12/18 10:08:37;;;;;;;0.20;0.20;;;10.80;99.90;;;;;;5072635;28;20178;-75
2020/12/18 10:11:02;;;;;;;0.35;0.35;;;10.90;99.90;;;;;;5072763;28;20249;-75
2020/12/18 10:13:28;;;;;;;0.10;0.10;;;10.90;99.90;;;;;;5072486;28;20162;-75
2020/12/18 10:15:53;;;;;;;0.32;0.32;;;10.80;99.90;;;;;;5072851;28;20193;-75
2020/12/18 10:18:19;;;;;;;0.95;0.95;;;10.90;99.90;;;;;;5072753;28;20163;-75
2020/12/18 10:20:45;;;;;;;0.30;0.30;;;10.90;99.90;;;;;;5072649;28;20171;-76
2020/12/18 10:23:10;;;;;;;7.57;1.25;;;11.00;99.90;;;;;;5072284;28;20216;-76
2020/12/18 10:25:36;;;;;;;1.17;0.95;;;11.00;99.90;;;;;;5072922;28;20205;-76
2020/12/18 10:28:02;;;;;;;0.15;0.15;;;11.00;99.90;;;;;;5072717;28;20487;-76
2020/12/18 10:30:28;;;;;;;0.43;0.43;;;11.10;99.90;;;;;;5072839;28;20208;-76
2020/12/18 10:32:54;;;;;;;0.35;0.35;;;11.20;99.90;;;;;;5072610;28;20190;-76
2020/12/18 10:35:19;;;;;;;2.28;0.65;;;11.30;99.90;;;;;;5054841;28;20240;-77
2020/12/18 10:37:47;;;;;;;0.50;0.50;;;11.30;99.90;;;;;;5072178;28;20174;-73
2020/12/18 10:40:14;;;;;;;0.20;0.20;;;11.20;99.90;;;;;;5082849;28;20166;-73
2020/12/18 10:42:40;;;;;;;0.75;0.75;;;11.20;99.90;;;;;;5090728;28;20165;-75
2020/12/18 10:45:06;;;;;;;5.90;1.05;;;11.30;99.90;;;;;;5096638;28;20536;-75
2020/12/18 10:47:32;;;;;;;1.65;0.73;;;11.40;99.90;;;;;;5096555;28;20206;-74
2020/12/18 10:49:57;;;;;;;0.35;0.35;;;11.40;99.90;;;;;;5096225;28;20231;-76
2020/12/18 10:52:24;;;;;;;0.95;0.95;;;11.60;99.90;;;;;;5096400;28;20617;-74
2020/12/18 10:54:52;;;;;;;0.90;0.70;;;11.70;99.90;;;;;;5096074;28;20625;-75
2020/12/18 10:57:18;;;;;;;0.40;0.40;;;11.70;99.90;;;;;;5096431;28;20174;-75
2020/12/18 10:59:43;;;;;;;0.88;0.88;;;11.60;99.90;;;;;;5096544;28;20166;-74
2020/12/18 11:02:09;;;;;;;0.28;0.28;;;11.70;99.90;;;;;;5096316;28;20216;-75
2020/12/18 11:04:34;;;;;;;0.40;0.40;;;11.80;99.90;;;;;;5096164;28;20197;-74
2020/12/18 11:07:00;;;;;;;0.10;0.10;;;11.80;99.90;;;;;;5095714;28;20280;-74
2020/12/18 11:09:26;;;;;;;0.50;0.50;;;11.70;99.90;;;;;;5095961;28;20640;-74
2020/12/18 11:11:53;;;;;;;0.10;0.10;;;11.60;99.90;;;;;;5094363;28;20174;-74
2020/12/18 11:14:20;;;;;;;13.43;0.40;;;11.60;99.90;;;;;;5093316;28;20580;-74
2020/12/18 11:16:45;;;;;;;0.20;0.20;;;11.60;99.90;;;;;;5095705;28;20178;-74
2020/12/18 11:19:12;;;;;;;0.43;0.40;;;11.60;99.90;;;;;;5095741;28;20236;-74
2020/12/18 11:21:41;;;;;;;2.83;1.15;;;11.60;99.90;;;;;;5095806;28;20166;-74
2020/12/18 11:24:07;;;;;;;2.65;0.88;;;11.60;99.90;;;;;;5095582;28;20242;-73
2020/12/18 11:26:32;;;;;;;0.32;0.32;;;11.60;99.90;;;;;;5095528;28;20237;-75
2020/12/18 11:28:58;;;;;;;0.40;0.40;;;11.70;99.90;;;;;;5095689;28;20163;-75
2020/12/18 11:31:23;;;;;;;0.30;0.30;;;11.80;99.90;;;;;;5095617;28;20169;-74
2020/12/18 11:33:49;;;;;;;0.20;0.20;;;11.80;99.90;;;;;;5095467;28;20680;-74
2020/12/18 11:36:14;;;;;;;0.20;0.20;;;11.80;99.90;;;;;;5095687;28;20334;-76
2020/12/18 11:38:40;;;;;;;0.20;0.20;;;11.80;99.90;;;;;;5095745;28;20162;-74
2020/12/18 11:41:05;;;;;;;0.45;0.45;;;11.90;99.90;;;;;;5095580;28;20177;-74
2020/12/18 11:43:31;;;;;;;19.52;0.70;;;11.90;99.90;;;;;;5095134;28;20678;-74
2020/12/18 11:45:58;;;;;;;0.40;0.40;;;11.90;99.90;;;;;;5095446;28;20217;-74
2020/12/18 11:48:24;;;;;;;0.20;0.20;;;11.90;99.90;;;;;;5095260;28;20161;-74
2020/12/18 11:50:50;;;;;;;0.40;0.40;;;12.10;99.90;;;;;;5095066;28;20173;-74
2020/12/18 11:53:16;;;;;;;0.47;0.47;;;12.00;99.90;;;;;;5094361;28;20170;-73
2020/12/18 11:55:42;;;;;;;2.40;1.45;;;12.10;99.90;;;;;;5076925;28;20266;-74
2020/12/18 11:58:08;;;;;;;3.03;0.35;;;12.10;99.90;;;;;;5094951;28;20162;-74
2020/12/18 12:00:33;;;;;;;0.17;0.17;;;12.10;99.90;;;;;;5095069;28;20656;-74
2020/12/18 12:02:59;;;;;;;0.13;0.13;;;12.10;99.90;;;;;;5094948;28;20592;-73
2020/12/18 12:05:24;;;;;;;0.75;0.40;;;12.30;99.90;;;;;;5094932;28;20269;-75
2020/12/18 12:07:51;;;;;;;0.10;0.10;;;12.20;99.90;;;;;;5095201;28;20174;-80
2020/12/18 12:10:18;;;;;;;0.70;0.55;;;12.10;99.90;;;;;;5069248;28;20181;-76
2020/12/18 12:12:47;;;;;;;0.52;0.52;;;12.10;99.90;;;;;;5076512;28;20180;-77
2020/12/18 12:15:14;;;;;;;0.20;0.20;;;12.20;99.90;;;;;;5094856;28;20545;-77
2020/12/18 12:17:39;;;;;;;0.20;0.20;;;12.20;99.90;;;;;;5094655;28;20188;-77
2020/12/18 12:20:05;;;;;;;20.77;1.23;;;12.20;99.90;;;;;;5094809;28;20625;-75
2020/12/18 12:22:31;;;;;;;16.75;0.35;;;12.20;99.90;;;;;;5094479;28;20180;-75
2020/12/18 12:24:56;;;;;;;0.20;0.20;;;12.20;99.90;;;;;;5094865;28;20239;-75
2020/12/18 12:27:23;;;;;;;0.20;0.20;;;12.20;99.90;;;;;;5094303;28;20205;-75
2020/12/18 12:29:49;;;;;;;2.30;0.40;;;12.20;99.90;;;;;;5094641;28;20249;-83
2020/12/18 12:32:15;;;;;;;0.45;0.45;;;12.10;99.90;;;;;;5094978;28;20190;-82
2020/12/18 12:34:41;;;;;;;0.17;0.17;;;12.10;99.90;;;;;;5094784;28;20231;-81
2020/12/18 12:37:07;;;;;;;0.30;0.30;;;12.10;99.90;;;;;;5094672;28;20592;-83
2020/12/18 12:39:33;;;;;;;0.35;0.35;;;12.10;99.90;;;;;;5076284;28;20165;-77
2020/12/18 12:42:02;;;;;;;0.32;0.25;;;12.20;99.90;;;;;;5094560;28;20158;-75
2020/12/18 12:44:28;;;;;;;0.10;0.10;;;12.30;99.90;;;;;;5094295;28;20186;-76
2020/12/18 12:46:54;;;;;;;0.30;0.30;;;12.30;99.90;;;;;;5093815;28;20206;-76
2020/12/18 12:49:20;;;;;;;0.32;0.32;;;12.30;99.90;;;;;;5094038;28;20161;-76
2020/12/18 12:51:45;;;;;;;0.28;0.28;;;12.20;99.90;;;;;;5093981;28;20230;-76